KSYI

Bomar Field-Shelbyville Municipal Airport

Shelbyville, Tennessee, USA
METAR KSYI 181455Z AUTO 00000KT 8SM CLR M10/M12 A3053 RMK A01
Observed Flight Rules
Jan-18 @ 14:55 UTC (29 minutes ago) Visual Flight Rules
Wind Visibility Clouds
Calm 8 miles
  • Clear skies
Temperatures Readings
Current -10°C / 14°F
Dewpoint -12°C / 10°F
Humidity 85%
Altimeter 30.53" Hg
Pressure 1034 hPa
Elevation 245
METAR KSYI 181455Z AUTO 00000KT 8SM CLR M10/M12 A3053 RMK A01
Observed Flight Rules
Jan-18 @ 14:55 UTC
(29 minutes ago)
VFR
Wind Visibility
Calm 8 miles
Clouds
  • Clear skies
Temperature Dewpoint
-10°C / 14°F -12°C / 10°F
Humidity Altimeter Pressure
85% 30.53" Hg 1034 hPa